Time;durP1;ratioP1;P1;durP2;ratioP2;P2;SDS_P1;SDS_P2;PMS_P1;PMS_P2;Temp;Humidity;BMP_temperature;BMP_pressure;BME280_temperature;BME280_humidity;BME280_pressure;Samples;Min_cycle;Max_cycle;Signal;HPM_P1;HPM_P2
2023/03/17 00:00:19;;;;;;;7.50;3.42;;;;;;;;;;4942927;28;20218;-63
2023/03/17 00:02:44;;;;;;;6.43;3.58;;;;;;;;;;4944360;28;20666;-63
2023/03/17 00:05:16;;;;;;;6.68;3.80;;;;;;;;;;4943797;28;20223;-62
2023/03/17 00:07:42;;;;;;;6.18;3.50;;;;;;;;;;4945941;28;20269;-63
2023/03/17 00:10:21;;;;;;;7.18;3.33;;;;;;;;;;4936063;28;20226;-63
2023/03/17 00:12:47;;;;;;;6.35;3.53;;;;;;;;;;4936090;28;20700;-63
2023/03/17 00:15:13;;;;;;;8.13;3.55;;;;;;;;;;4958276;28;20701;-63
2023/03/17 00:17:39;;;;;;;6.03;3.33;;;;;;;;;;4962884;28;20206;-63
2023/03/17 00:20:04;;;;;;;6.60;3.40;;;;;;;;;;4962521;28;20260;-63
2023/03/17 00:22:30;;;;;;;6.53;3.83;;;;;;;;;;4961994;28;20397;-63
2023/03/17 00:24:55;;;;;;;7.57;3.50;;;;;;;;;;4962928;28;20220;-63
2023/03/17 00:27:20;;;;;;;6.75;3.42;;;;;;;;;;4948628;28;20218;-63
2023/03/17 00:29:46;;;;;;;5.50;3.33;;;;;;;;;;4941974;28;20285;-63
2023/03/17 00:32:18;;;;;;;7.82;3.60;;;;;;;;;;4936466;28;20277;-62
2023/03/17 00:34:43;;;;;;;6.25;3.30;;;;;;;;;;4935464;28;20784;-64
2023/03/17 00:37:10;;;;;;;5.57;3.08;;;;;;;;;;4936675;28;20240;-63
2023/03/17 00:39:35;;;;;;;5.85;3.72;;;;;;;;;;4943940;28;20799;-63
2023/03/17 00:42:00;;;;;;;6.93;3.78;;;;;;;;;;4942109;28;20646;-63
2023/03/17 00:44:26;;;;;;;7.03;3.25;;;;;;;;;;4943778;28;20214;-63
2023/03/17 00:46:52;;;;;;;12.77;8.73;;;;;;;;;;4943896;28;20210;-63
2023/03/17 00:49:18;;;;;;;6.72;3.92;;;;;;;;;;4924817;28;20234;-63
2023/03/17 00:51:44;;;;;;;7.72;3.67;;;;;;;;;;4962157;28;20221;-63
2023/03/17 00:54:10;;;;;;;6.78;3.28;;;;;;;;;;4955245;28;20271;-63
2023/03/17 00:56:36;;;;;;;6.45;3.70;;;;;;;;;;4936727;28;20643;-63
2023/03/17 00:59:01;;;;;;;6.65;3.50;;;;;;;;;;4954120;28;20726;-63
2023/03/17 01:01:26;;;;;;;6.07;3.17;;;;;;;;;;4961065;28;20221;-63
2023/03/17 01:03:52;;;;;;;5.63;3.33;;;;;;;;;;4961525;28;20606;-63
2023/03/17 01:06:17;;;;;;;6.57;3.47;;;;;;;;;;4943042;28;20803;-63
2023/03/17 01:08:43;;;;;;;6.57;3.60;;;;;;;;;;4943264;28;20222;-63
2023/03/17 01:11:16;;;;;;;6.57;3.35;;;;;;;;;;4942126;28;20249;-63
2023/03/17 01:13:41;;;;;;;8.57;4.43;;;;;;;;;;4943202;28;20681;-63
2023/03/17 01:16:08;;;;;;;59.28;23.40;;;;;;;;;;4937938;28;20313;-63
2023/03/17 01:18:34;;;;;;;9.55;4.68;;;;;;;;;;4936182;28;20214;-63
2023/03/17 01:20:59;;;;;;;7.78;3.70;;;;;;;;;;4954494;28;20241;-64
2023/03/17 01:23:24;;;;;;;5.85;3.58;;;;;;;;;;4956881;28;20213;-64
2023/03/17 01:25:50;;;;;;;8.25;3.65;;;;;;;;;;4959811;28;20210;-63
2023/03/17 01:28:16;;;;;;;7.05;3.55;;;;;;;;;;4942461;28;20236;-63
2023/03/17 01:30:42;;;;;;;6.20;3.20;;;;;;;;;;4942657;28;20313;-63
2023/03/17 01:33:08;;;;;;;5.97;3.33;;;;;;;;;;4941725;28;20317;-61
2023/03/17 01:35:34;;;;;;;7.20;3.80;;;;;;;;;;4942928;28;20218;-62
2023/03/17 01:37:59;;;;;;;6.65;3.53;;;;;;;;;;4939258;28;21024;-62
2023/03/17 01:40:26;;;;;;;6.25;3.70;;;;;;;;;;4935573;28;20217;-62
2023/03/17 01:42:53;;;;;;;6.43;3.70;;;;;;;;;;4935586;28;20265;-62
2023/03/17 01:45:38;;;;;;;6.68;3.45;;;;;;;;;;4936360;28;20218;-62
2023/03/17 01:48:03;;;;;;;5.40;3.42;;;;;;;;;;4942239;28;20210;-62
2023/03/17 01:50:29;;;;;;;7.57;3.65;;;;;;;;;;4942628;28;20210;-62
2023/03/17 01:52:54;;;;;;;8.02;4.07;;;;;;;;;;4924973;28;20342;-62
2023/03/17 01:55:20;;;;;;;5.18;3.72;;;;;;;;;;4941854;28;20218;-62
2023/03/17 01:57:45;;;;;;;8.18;4.05;;;;;;;;;;4942857;28;20210;-62
2023/03/17 02:00:14;;;;;;;7.53;4.30;;;;;;;;;;4923132;28;20242;-62
2023/03/17 02:02:41;;;;;;;6.55;3.60;;;;;;;;;;4954494;28;20268;-62
2023/03/17 02:05:08;;;;;;;7.75;4.00;;;;;;;;;;4953180;28;20265;-62
2023/03/17 02:07:33;;;;;;;6.93;3.50;;;;;;;;;;4954893;28;20248;-62
2023/03/17 02:09:58;;;;;;;6.20;3.78;;;;;;;;;;4960084;28;20308;-62
2023/03/17 02:12:24;;;;;;;8.05;4.07;;;;;;;;;;4945970;28;20222;-62
2023/03/17 02:14:50;;;;;;;6.32;4.05;;;;;;;;;;4945719;28;20297;-62
2023/03/17 02:17:15;;;;;;;7.88;4.35;;;;;;;;;;4945933;28;20297;-62
2023/03/17 02:19:41;;;;;;;7.28;3.80;;;;;;;;;;4964663;28;20296;-62
2023/03/17 02:22:07;;;;;;;8.05;4.20;;;;;;;;;;4964183;28;20217;-62
2023/03/17 02:24:34;;;;;;;6.97;4.13;;;;;;;;;;4959378;28;20678;-62
2023/03/17 02:27:02;;;;;;;7.20;3.83;;;;;;;;;;4929906;28;20214;-62
2023/03/17 02:29:27;;;;;;;6.53;4.20;;;;;;;;;;4954735;28;20595;-62
2023/03/17 02:31:53;;;;;;;6.25;3.95;;;;;;;;;;4944714;28;20709;-62
2023/03/17 02:34:18;;;;;;;6.03;3.67;;;;;;;;;;4944604;28;20226;-62
2023/03/17 02:36:45;;;;;;;6.38;3.95;;;;;;;;;;4945856;28;20229;-62
2023/03/17 02:39:11;;;;;;;6.07;3.70;;;;;;;;;;4945353;28;20339;-62
2023/03/17 02:41:36;;;;;;;9.50;4.32;;;;;;;;;;4963844;28;20237;-62
2023/03/17 02:44:02;;;;;;;7.82;4.25;;;;;;;;;;4947062;28;20234;-62
2023/03/17 02:46:27;;;;;;;5.35;3.70;;;;;;;;;;4951166;28;20280;-62
2023/03/17 02:48:52;;;;;;;5.82;3.90;;;;;;;;;;4937673;28;20257;-62
2023/03/17 02:51:18;;;;;;;9.73;3.92;;;;;;;;;;4937557;28;20505;-62
2023/03/17 02:53:43;;;;;;;7.57;3.83;;;;;;;;;;4942170;28;20222;-62
2023/03/17 02:56:09;;;;;;;6.80;3.85;;;;;;;;;;4944028;28;20318;-62
2023/03/17 02:58:34;;;;;;;6.88;3.47;;;;;;;;;;4945572;28;20214;-62
2023/03/17 03:00:59;;;;;;;7.95;4.03;;;;;;;;;;4945471;28;20253;-62
2023/03/17 03:03:25;;;;;;;7.78;4.03;;;;;;;;;;4944470;28;20222;-62
2023/03/17 03:05:50;;;;;;;5.53;3.55;;;;;;;;;;4945216;28;20642;-62
2023/03/17 03:08:16;;;;;;;7.13;3.80;;;;;;;;;;4944075;28;21075;-62
2023/03/17 03:10:41;;;;;;;9.27;4.00;;;;;;;;;;4937536;28;20608;-62
2023/03/17 03:13:07;;;;;;;7.30;3.47;;;;;;;;;;4937129;28;20276;-62
2023/03/17 03:15:32;;;;;;;5.50;3.33;;;;;;;;;;4938280;28;20222;-62
2023/03/17 03:17:58;;;;;;;6.47;3.38;;;;;;;;;;4944635;28;20231;-62
2023/03/17 03:20:23;;;;;;;6.07;3.47;;;;;;;;;;4944769;28;20214;-62
2023/03/17 03:22:48;;;;;;;6.53;3.63;;;;;;;;;;4944408;28;20219;-62
2023/03/17 03:25:13;;;;;;;6.43;3.55;;;;;;;;;;4944131;28;20576;-62
2023/03/17 03:27:39;;;;;;;5.95;3.60;;;;;;;;;;4944749;28;20261;-62
2023/03/17 03:30:06;;;;;;;7.18;3.53;;;;;;;;;;4944425;28;20256;-62
2023/03/17 03:32:32;;;;;;;6.78;3.50;;;;;;;;;;4939024;28;20284;-62
2023/03/17 03:34:58;;;;;;;7.50;3.30;;;;;;;;;;4937307;28;20617;-62
2023/03/17 03:37:23;;;;;;;9.20;3.22;;;;;;;;;;4936719;28;20222;-62
2023/03/17 03:39:48;;;;;;;6.68;3.10;;;;;;;;;;4942582;28;20218;-62
2023/03/17 03:42:13;;;;;;;16.58;3.47;;;;;;;;;;4944074;28;20323;-62
2023/03/17 03:44:39;;;;;;;6.47;3.35;;;;;;;;;;4943997;28;20230;-62
2023/03/17 03:47:04;;;;;;;7.25;3.50;;;;;;;;;;4944304;28;20745;-62
2023/03/17 03:49:29;;;;;;;7.22;3.55;;;;;;;;;;4944461;28;20357;-62
2023/03/17 03:51:54;;;;;;;5.47;3.40;;;;;;;;;;4950290;28;20213;-62
2023/03/17 03:54:20;;;;;;;6.32;3.65;;;;;;;;;;4972489;28;20583;-62
2023/03/17 03:56:45;;;;;;;6.15;3.70;;;;;;;;;;4973440;28;20202;-62
2023/03/17 03:59:10;;;;;;;4.97;3.13;;;;;;;;;;4971860;28;20217;-62
2023/03/17 04:01:36;;;;;;;7.97;3.78;;;;;;;;;;4973195;28;20230;-62
2023/03/17 04:04:01;;;;;;;8.07;3.67;;;;;;;;;;4972897;28;20210;-62
2023/03/17 04:06:26;;;;;;;6.35;3.28;;;;;;;;;;4972479;28;20273;-62
2023/03/17 04:08:51;;;;;;;8.25;3.50;;;;;;;;;;4973222;28;20588;-62
2023/03/17 04:11:17;;;;;;;7.63;3.53;;;;;;;;;;4972113;28;20210;-62
2023/03/17 04:13:42;;;;;;;7.50;3.58;;;;;;;;;;4972372;28;20669;-62
2023/03/17 04:16:07;;;;;;;6.53;3.50;;;;;;;;;;4972523;28;20209;-62
2023/03/17 04:18:32;;;;;;;5.95;3.22;;;;;;;;;;4972955;28;20676;-62
2023/03/17 04:20:58;;;;;;;6.18;3.08;;;;;;;;;;4972336;28;20210;-62
2023/03/17 04:23:23;;;;;;;5.53;2.63;;;;;;;;;;4972328;28;20579;-62
2023/03/17 04:25:49;;;;;;;5.30;3.10;;;;;;;;;;4972637;28;20210;-62
2023/03/17 04:28:15;;;;;;;5.90;3.38;;;;;;;;;;4971429;28;20264;-62
2023/03/17 04:30:40;;;;;;;4.88;2.90;;;;;;;;;;4960904;28;20305;-62
2023/03/17 04:33:05;;;;;;;5.95;2.92;;;;;;;;;;4951926;28;20686;-62
2023/03/17 04:35:31;;;;;;;6.25;3.60;;;;;;;;;;4952907;29;20211;-62
2023/03/17 04:37:56;;;;;;;5.78;3.38;;;;;;;;;;4953146;29;20219;-62
2023/03/17 04:40:21;;;;;;;5.80;3.10;;;;;;;;;;4970679;28;20562;-62
2023/03/17 04:42:47;;;;;;;5.78;3.03;;;;;;;;;;4971734;28;20224;-62
2023/03/17 04:45:13;;;;;;;4.82;2.88;;;;;;;;;;4971635;28;20222;-62
2023/03/17 04:47:39;;;;;;;6.40;3.15;;;;;;;;;;4952808;28;20221;-62
2023/03/17 04:50:06;;;;;;;5.90;3.22;;;;;;;;;;4952075;28;20227;-62
2023/03/17 04:52:32;;;;;;;6.30;3.10;;;;;;;;;;4959748;28;20297;-62
2023/03/17 04:54:57;;;;;;;5.15;2.97;;;;;;;;;;4953931;28;20758;-62
2023/03/17 04:57:23;;;;;;;6.38;3.40;;;;;;;;;;4969050;28;20218;-62
2023/03/17 04:59:48;;;;;;;10.07;3.20;;;;;;;;;;4956508;28;20297;-62
2023/03/17 05:02:13;;;;;;;8.13;3.42;;;;;;;;;;4951649;29;20937;-62
2023/03/17 05:04:39;;;;;;;7.25;3.50;;;;;;;;;;4970097;28;20632;-62
2023/03/17 05:07:04;;;;;;;6.30;3.30;;;;;;;;;;4971683;28;20210;-62
2023/03/17 05:09:29;;;;;;;5.80;2.92;;;;;;;;;;4971230;28;20225;-62
2023/03/17 05:11:55;;;;;;;6.37;2.83;;;;;;;;;;4971894;28;20221;-62
2023/03/17 05:14:20;;;;;;;5.15;2.78;;;;;;;;;;4971329;28;20635;-62
2023/03/17 05:16:46;;;;;;;5.10;2.90;;;;;;;;;;4971169;28;20210;-62
2023/03/17 05:19:11;;;;;;;6.93;3.30;;;;;;;;;;4971444;28;20677;-62
2023/03/17 05:21:36;;;;;;;6.43;3.15;;;;;;;;;;4971633;28;20218;-62
2023/03/17 05:24:02;;;;;;;7.00;3.40;;;;;;;;;;4970757;28;20217;-62
2023/03/17 05:26:27;;;;;;;8.52;3.17;;;;;;;;;;4965400;28;20370;-62
2023/03/17 05:28:52;;;;;;;6.03;2.95;;;;;;;;;;4952039;28;20276;-62
2023/03/17 05:31:18;;;;;;;5.32;3.03;;;;;;;;;;4967566;28;20237;-62
2023/03/17 05:33:43;;;;;;;6.43;3.50;;;;;;;;;;4971771;28;20205;-62
2023/03/17 05:36:09;;;;;;;7.15;3.25;;;;;;;;;;4970927;28;20604;-62
2023/03/17 05:38:34;;;;;;;6.03;3.20;;;;;;;;;;4967143;28;20202;-62
2023/03/17 05:41:00;;;;;;;7.70;2.80;;;;;;;;;;4952427;29;20210;-62
2023/03/17 05:43:26;;;;;;;6.57;3.15;;;;;;;;;;4951604;29;20206;-62
2023/03/17 05:45:51;;;;;;;7.75;3.58;;;;;;;;;;4951447;29;20653;-62
2023/03/17 05:48:17;;;;;;;6.20;3.60;;;;;;;;;;4951567;29;20222;-62
2023/03/17 05:50:42;;;;;;;7.25;3.00;;;;;;;;;;4952115;29;20285;-62
2023/03/17 05:53:08;;;;;;;6.25;3.25;;;;;;;;;;4948715;28;20211;-62
2023/03/17 05:55:33;;;;;;;5.20;3.13;;;;;;;;;;4942434;28;20669;-62
2023/03/17 05:57:59;;;;;;;5.25;2.90;;;;;;;;;;4935149;28;20249;-62
2023/03/17 06:00:25;;;;;;;6.17;3.20;;;;;;;;;;4934127;28;20832;-62
2023/03/17 06:02:51;;;;;;;8.38;3.33;;;;;;;;;;4934925;28;20659;-62
2023/03/17 06:05:16;;;;;;;6.07;3.03;;;;;;;;;;4940835;28;20234;-62
2023/03/17 06:07:41;;;;;;;5.00;2.83;;;;;;;;;;4942356;28;20702;-62
2023/03/17 06:10:07;;;;;;;5.72;3.13;;;;;;;;;;4958244;28;20678;-62
2023/03/17 06:12:32;;;;;;;5.60;2.88;;;;;;;;;;4941618;28;20213;-62
2023/03/17 06:14:58;;;;;;;5.93;2.80;;;;;;;;;;4942625;28;20600;-63
2023/03/17 06:17:24;;;;;;;5.53;2.92;;;;;;;;;;4941877;28;20253;-62
2023/03/17 06:19:49;;;;;;;5.25;3.05;;;;;;;;;;4936763;28;20210;-62
2023/03/17 06:22:15;;;;;;;6.07;3.30;;;;;;;;;;4934507;28;20222;-62
2023/03/17 06:24:40;;;;;;;8.13;3.13;;;;;;;;;;4934528;28;20286;-62
2023/03/17 06:27:05;;;;;;;6.65;3.20;;;;;;;;;;4939324;28;20210;-62
2023/03/17 06:29:31;;;;;;;6.78;3.30;;;;;;;;;;4941864;28;20552;-62
2023/03/17 06:31:56;;;;;;;7.07;3.08;;;;;;;;;;4941851;28;20215;-62
2023/03/17 06:34:23;;;;;;;7.33;3.37;;;;;;;;;;4940781;28;20254;-62
2023/03/17 06:36:48;;;;;;;6.25;3.53;;;;;;;;;;4960923;28;20210;-62
2023/03/17 06:39:14;;;;;;;4.60;3.25;;;;;;;;;;4941900;28;20203;-62
2023/03/17 06:41:40;;;;;;;5.35;3.25;;;;;;;;;;4921761;28;20735;-62
2023/03/17 06:44:06;;;;;;;7.65;3.85;;;;;;;;;;4953498;28;20702;-62
2023/03/17 06:46:31;;;;;;;6.28;3.60;;;;;;;;;;4935605;28;20304;-62
2023/03/17 06:48:57;;;;;;;9.82;3.20;;;;;;;;;;4955575;28;20234;-62
2023/03/17 06:51:22;;;;;;;6.33;3.20;;;;;;;;;;4960441;28;20237;-62
2023/03/17 06:53:47;;;;;;;6.88;3.20;;;;;;;;;;4961173;28;20308;-62
2023/03/17 06:56:13;;;;;;;7.32;3.63;;;;;;;;;;4960940;28;20241;-62
2023/03/17 06:58:38;;;;;;;7.57;3.38;;;;;;;;;;4964578;28;20636;-62
2023/03/17 07:01:04;;;;;;;9.80;3.50;;;;;;;;;;4962634;28;20685;-62
2023/03/17 07:03:30;;;;;;;7.03;3.60;;;;;;;;;;4944756;28;20682;-62
2023/03/17 07:05:55;;;;;;;10.02;3.78;;;;;;;;;;4938846;28;20434;-62
2023/03/17 07:08:20;;;;;;;7.18;3.30;;;;;;;;;;4936899;28;20769;-62
2023/03/17 07:10:46;;;;;;;9.05;3.33;;;;;;;;;;4937658;28;20682;-62
2023/03/17 07:13:11;;;;;;;6.97;3.42;;;;;;;;;;4944481;28;20552;-62
2023/03/17 07:15:36;;;;;;;6.40;3.63;;;;;;;;;;4947609;28;20490;-62
2023/03/17 07:18:02;;;;;;;10.27;3.60;;;;;;;;;;4953643;28;20222;-62
2023/03/17 07:20:28;;;;;;;6.45;3.33;;;;;;;;;;4954674;29;20206;-61
2023/03/17 07:22:53;;;;;;;8.73;3.80;;;;;;;;;;4952846;29;20435;-63
2023/03/17 07:25:18;;;;;;;6.68;3.22;;;;;;;;;;4954186;29;20458;-62
2023/03/17 07:27:44;;;;;;;11.00;3.80;;;;;;;;;;4954496;28;20218;-63
2023/03/17 07:30:11;;;;;;;6.20;2.90;;;;;;;;;;4960279;28;20813;-62
2023/03/17 07:32:36;;;;;;;8.13;3.20;;;;;;;;;;4945780;28;20696;-63
2023/03/17 07:35:03;;;;;;;7.18;3.33;;;;;;;;;;4964104;28;20214;-63
2023/03/17 07:37:28;;;;;;;8.40;3.47;;;;;;;;;;4962602;28;20226;-62
2023/03/17 07:39:54;;;;;;;7.15;3.50;;;;;;;;;;4964051;28;20277;-63
2023/03/17 07:42:19;;;;;;;8.95;3.65;;;;;;;;;;4963647;28;20203;-63
2023/03/17 07:44:44;;;;;;;9.38;3.45;;;;;;;;;;4965905;28;20206;-63
2023/03/17 07:47:10;;;;;;;6.60;3.30;;;;;;;;;;4964669;28;20206;-63
2023/03/17 07:49:35;;;;;;;8.88;3.10;;;;;;;;;;4964630;28;20260;-62
2023/03/17 07:52:01;;;;;;;8.35;3.50;;;;;;;;;;4965381;28;20661;-62
2023/03/17 07:54:27;;;;;;;9.18;3.53;;;;;;;;;;4964556;28;20725;-63
2023/03/17 07:56:53;;;;;;;6.50;3.60;;;;;;;;;;4964961;28;20210;-63
2023/03/17 07:59:19;;;;;;;11.05;4.72;;;;;;;;;;4965118;28;20210;-62
2023/03/17 08:01:45;;;;;;;8.48;4.00;;;;;;;;;;4964200;28;20233;-62
2023/03/17 08:04:12;;;;;;;8.77;4.03;;;;;;;;;;4967150;28;20564;-63
2023/03/17 08:06:39;;;;;;;7.53;3.53;;;;;;;;;;4963906;28;20293;-62
2023/03/17 08:09:04;;;;;;;7.05;3.90;;;;;;;;;;4962969;28;20286;-63
2023/03/17 08:11:30;;;;;;;9.35;3.65;;;;;;;;;;4961652;28;20253;-63
2023/03/17 08:13:55;;;;;;;6.20;3.60;;;;;;;;;;4964157;28;20210;-62
2023/03/17 08:16:21;;;;;;;5.75;3.67;;;;;;;;;;4948590;28;20229;-63
2023/03/17 08:18:46;;;;;;;11.10;4.13;;;;;;;;;;4962859;28;20206;-63
2023/03/17 08:21:12;;;;;;;6.03;3.70;;;;;;;;;;4965952;28;20560;-62
2023/03/17 08:23:37;;;;;;;7.90;3.35;;;;;;;;;;4964623;28;20216;-62
2023/03/17 08:26:03;;;;;;;5.97;3.63;;;;;;;;;;4964790;28;20216;-62
2023/03/17 08:28:28;;;;;;;6.43;3.53;;;;;;;;;;4956628;28;20221;-62
2023/03/17 08:30:53;;;;;;;6.70;3.58;;;;;;;;;;4948449;28;20652;-63
2023/03/17 08:33:19;;;;;;;6.05;3.38;;;;;;;;;;4957315;28;20254;-65
2023/03/17 08:35:44;;;;;;;7.93;3.58;;;;;;;;;;4955326;29;20289;-67
2023/03/17 08:38:10;;;;;;;6.25;3.10;;;;;;;;;;4955151;28;20215;-65
2023/03/17 08:40:35;;;;;;;6.68;3.42;;;;;;;;;;4974070;28;20232;-65
2023/03/17 08:43:01;;;;;;;6.95;3.30;;;;;;;;;;4974177;28;20222;-65
2023/03/17 08:45:26;;;;;;;8.02;3.30;;;;;;;;;;4974415;28;20214;-65
2023/03/17 08:47:52;;;;;;;5.03;3.20;;;;;;;;;;4973953;28;20753;-65
2023/03/17 08:50:18;;;;;;;5.40;3.13;;;;;;;;;;4973801;28;20233;-65
2023/03/17 08:52:44;;;;;;;24.63;4.75;;;;;;;;;;4974030;28;20213;-65
2023/03/17 08:55:10;;;;;;;5.05;2.97;;;;;;;;;;4973540;28;20744;-65
2023/03/17 08:57:36;;;;;;;6.93;3.63;;;;;;;;;;4973876;28;20213;-65
2023/03/17 09:00:09;;;;;;;12.93;3.50;;;;;;;;;;4971783;28;20209;-65
2023/03/17 09:02:35;;;;;;;7.85;2.70;;;;;;;;;;4971251;28;20217;-65
2023/03/17 09:05:01;;;;;;;6.70;3.30;;;;;;;;;;4971850;28;20654;-65
2023/03/17 09:07:26;;;;;;;9.07;2.63;;;;;;;;;;4971530;28;20267;-65
2023/03/17 09:09:52;;;;;;;8.63;2.90;;;;;;;;;;4964893;28;20229;-65
2023/03/17 09:12:18;;;;;;;4.30;2.30;;;;;;;;;;4966846;28;20245;-65
2023/03/17 09:14:44;;;;;;;5.30;2.33;;;;;;;;;;4971664;28;20205;-65
2023/03/17 09:17:10;;;;;;;8.35;2.47;;;;;;;;;;4970874;28;20220;-65
2023/03/17 09:19:35;;;;;;;4.82;2.25;;;;;;;;;;4971131;28;20210;-65
2023/03/17 09:22:01;;;;;;;7.05;3.10;;;;;;;;;;4970972;28;20645;-64
2023/03/17 09:24:27;;;;;;;4.93;2.58;;;;;;;;;;4971392;28;20224;-65
2023/03/17 09:26:52;;;;;;;5.38;2.40;;;;;;;;;;4961704;28;20214;-65
2023/03/17 09:29:18;;;;;;;4.38;2.30;;;;;;;;;;4951698;28;20430;-65
2023/03/17 09:31:43;;;;;;;6.00;2.50;;;;;;;;;;4971730;28;20224;-65
2023/03/17 09:34:08;;;;;;;4.63;2.58;;;;;;;;;;4970640;28;20580;-65
2023/03/17 09:36:34;;;;;;;5.35;2.63;;;;;;;;;;4970791;28;20222;-65
2023/03/17 09:38:59;;;;;;;8.65;2.25;;;;;;;;;;4964282;28;20215;-65
2023/03/17 09:41:28;;;;;;;4.70;2.13;;;;;;;;;;4951258;29;20230;-65
2023/03/17 09:43:54;;;;;;;8.88;3.20;;;;;;;;;;4951748;29;20203;-65
2023/03/17 09:46:38;;;;;;;4.70;2.30;;;;;;;;;;4934544;29;20222;-65
2023/03/17 09:49:06;;;;;;;4.38;2.60;;;;;;;;;;4951342;29;20234;-65
2023/03/17 09:51:32;;;;;;;3.95;2.20;;;;;;;;;;4934286;29;20226;-65
2023/03/17 09:54:01;;;;;;;6.93;2.53;;;;;;;;;;4934982;29;20214;-65
2023/03/17 09:56:27;;;;;;;6.43;3.17;;;;;;;;;;4951267;29;20249;-65
2023/03/17 09:58:53;;;;;;;8.48;3.25;;;;;;;;;;4934570;29;20205;-65
2023/03/17 10:01:19;;;;;;;11.63;2.90;;;;;;;;;;4934585;29;20689;-65
2023/03/17 10:03:46;;;;;;;6.35;2.88;;;;;;;;;;4951749;29;20206;-65
2023/03/17 10:06:21;;;;;;;8.25;3.05;;;;;;;;;;4950799;29;20214;-65
2023/03/17 10:08:48;;;;;;;5.32;2.55;;;;;;;;;;4951988;29;20317;-65
2023/03/17 10:11:40;;;;;;;6.05;3.20;;;;;;;;;;4933830;29;20219;-65
2023/03/17 10:14:17;;;;;;;5.80;2.53;;;;;;;;;;4951129;29;20236;-65
2023/03/17 10:16:54;;;;;;;6.13;2.83;;;;;;;;;;4934727;29;20266;-65
2023/03/17 10:19:21;;;;;;;4.78;2.15;;;;;;;;;;4950789;29;20559;-64
2023/03/17 10:21:50;;;;;;;6.97;3.10;;;;;;;;;;4934602;29;20685;-65
2023/03/17 10:24:15;;;;;;;6.28;3.33;;;;;;;;;;4934297;29;20245;-65
2023/03/17 10:26:41;;;;;;;6.38;2.88;;;;;;;;;;4953729;28;20194;-65
2023/03/17 10:29:11;;;;;;;6.15;3.15;;;;;;;;;;4951150;28;20230;-65
2023/03/17 10:31:36;;;;;;;7.97;3.75;;;;;;;;;;4936213;29;20229;-65
2023/03/17 10:34:13;;;;;;;6.22;3.13;;;;;;;;;;4954694;29;20207;-64
2023/03/17 10:36:41;;;;;;;7.18;3.10;;;;;;;;;;4938059;29;20214;-65
2023/03/17 10:39:07;;;;;;;6.18;3.03;;;;;;;;;;4961942;28;20615;-65
2023/03/17 10:41:34;;;;;;;9.57;3.30;;;;;;;;;;4937475;29;20290;-65
2023/03/17 10:44:00;;;;;;;6.75;3.22;;;;;;;;;;4955293;29;20223;-65
2023/03/17 10:46:25;;;;;;;3.92;2.72;;;;;;;;;;4954669;29;20207;-65
2023/03/17 10:48:52;;;;;;;7.25;3.20;;;;;;;;;;4954772;29;20260;-65
2023/03/17 10:51:29;;;;;;;6.40;3.28;;;;;;;;;;4954400;29;20225;-65
2023/03/17 10:53:55;;;;;;;7.15;3.40;;;;;;;;;;4954587;29;20222;-65
2023/03/17 10:56:22;;;;;;;7.70;3.53;;;;;;;;;;4938423;28;20346;-64
2023/03/17 10:58:48;;;;;;;6.75;3.08;;;;;;;;;;4963363;28;20207;-63
2023/03/17 11:01:16;;;;;;;7.53;3.28;;;;;;;;;;4963858;28;20216;-65
2023/03/17 11:03:42;;;;;;;7.75;3.13;;;;;;;;;;4947108;28;20619;-64
2023/03/17 11:06:09;;;;;;;6.45;3.03;;;;;;;;;;4954037;29;20219;-64
2023/03/17 11:08:37;;;;;;;7.05;3.20;;;;;;;;;;4946040;28;20209;-64
2023/03/17 11:11:03;;;;;;;7.15;3.60;;;;;;;;;;4941556;29;20257;-63
2023/03/17 11:13:29;;;;;;;7.50;3.58;;;;;;;;;;4960530;28;20218;-64
2023/03/17 11:15:59;;;;;;;6.28;3.45;;;;;;;;;;4970837;28;20747;-64
2023/03/17 11:18:27;;;;;;;6.05;3.20;;;;;;;;;;4947225;29;20226;-64
2023/03/17 11:20:55;;;;;;;8.30;3.20;;;;;;;;;;4949645;28;20221;-64
2023/03/17 11:23:29;;;;;;;6.88;3.13;;;;;;;;;;4969547;28;20221;-63
2023/03/17 11:26:13;;;;;;;7.20;3.72;;;;;;;;;;4956807;28;20218;-64
2023/03/17 11:28:39;;;;;;;9.25;3.83;;;;;;;;;;4937461;28;20225;-64
2023/03/17 11:31:14;;;;;;;9.55;4.20;;;;;;;;;;4959399;28;20245;-64
2023/03/17 11:33:53;;;;;;;10.50;3.63;;;;;;;;;;4956535;29;20561;-64
2023/03/17 11:36:29;;;;;;;7.35;3.58;;;;;;;;;;4955345;29;20706;-64
2023/03/17 11:38:57;;;;;;;10.15;4.10;;;;;;;;;;4942502;29;20301;-64
2023/03/17 11:41:25;;;;;;;9.27;4.10;;;;;;;;;;4954215;28;20269;-64
2023/03/17 11:44:00;;;;;;;9.70;4.32;;;;;;;;;;4955803;28;20215;-64
2023/03/17 11:46:27;;;;;;;8.50;4.18;;;;;;;;;;4954653;29;20561;-64
2023/03/17 11:48:55;;;;;;;8.27;3.63;;;;;;;;;;4956159;28;20254;-64
2023/03/17 11:51:27;;;;;;;8.48;4.00;;;;;;;;;;4954007;28;20242;-64
2023/03/17 11:53:59;;;;;;;11.57;4.53;;;;;;;;;;4956009;28;20674;-64
2023/03/17 11:56:34;;;;;;;8.77;3.97;;;;;;;;;;4954103;28;20261;-64
2023/03/17 11:59:01;;;;;;;8.93;3.92;;;;;;;;;;4954372;29;20747;-64
2023/03/17 12:01:29;;;;;;;8.05;4.22;;;;;;;;;;4954492;28;20214;-64
2023/03/17 12:04:11;;;;;;;10.77;4.32;;;;;;;;;;4949743;28;20670;-63
2023/03/17 12:06:41;;;;;;;8.30;4.07;;;;;;;;;;4957568;28;20727;-63
2023/03/17 12:09:07;;;;;;;9.13;3.85;;;;;;;;;;4946314;29;20254;-64
2023/03/17 12:11:34;;;;;;;7.35;4.00;;;;;;;;;;4955246;29;20301;-64
2023/03/17 12:14:01;;;;;;;9.05;4.45;;;;;;;;;;4938659;29;20218;-63
2023/03/17 12:16:30;;;;;;;8.68;3.92;;;;;;;;;;4938303;29;20215;-63
2023/03/17 12:18:59;;;;;;;11.60;4.40;;;;;;;;;;4938566;29;20219;-63
2023/03/17 12:21:27;;;;;;;10.73;4.53;;;;;;;;;;4955201;29;20583;-64
2023/03/17 12:23:55;;;;;;;7.18;4.28;;;;;;;;;;4937724;29;20214;-64
2023/03/17 12:26:26;;;;;;;8.63;4.88;;;;;;;;;;4924412;28;20218;-63
2023/03/17 12:28:55;;;;;;;11.95;4.35;;;;;;;;;;4938314;29;20227;-63
2023/03/17 12:31:23;;;;;;;8.82;4.00;;;;;;;;;;4937562;29;20317;-63
2023/03/17 12:33:52;;;;;;;8.02;3.80;;;;;;;;;;4937694;29;20218;-63
2023/03/17 12:36:17;;;;;;;9.30;4.43;;;;;;;;;;4954887;29;20217;-63
2023/03/17 12:38:50;;;;;;;71.03;63.10;;;;;;;;;;4942615;28;20207;-63
2023/03/17 12:41:27;;;;;;;10.30;7.07;;;;;;;;;;4956316;28;20218;-64
2023/03/17 12:44:04;;;;;;;9.60;4.70;;;;;;;;;;4974107;28;20296;-63
2023/03/17 12:46:30;;;;;;;7.78;4.82;;;;;;;;;;4956538;28;20214;-63
2023/03/17 12:49:00;;;;;;;8.00;4.25;;;;;;;;;;4974418;28;20312;-63
2023/03/17 12:51:29;;;;;;;11.07;4.70;;;;;;;;;;4956491;28;20209;-63
2023/03/17 12:53:55;;;;;;;8.18;4.38;;;;;;;;;;4955288;28;20639;-63
2023/03/17 12:56:21;;;;;;;9.55;5.10;;;;;;;;;;4973929;28;20222;-63
2023/03/17 12:58:48;;;;;;;7.45;4.53;;;;;;;;;;4956667;28;20206;-64
2023/03/17 13:01:24;;;;;;;8.43;4.18;;;;;;;;;;4955852;28;20236;-63
2023/03/17 13:04:10;;;;;;;7.43;4.80;;;;;;;;;;4955210;28;20284;-63
2023/03/17 13:06:38;;;;;;;7.32;4.63;;;;;;;;;;4971349;28;20218;-63
2023/03/17 13:09:35;;;;;;;8.50;4.85;;;;;;;;;;4970606;28;20682;-64
2023/03/17 13:12:00;;;;;;;8.02;4.35;;;;;;;;;;4938349;28;20585;-64
2023/03/17 13:14:26;;;;;;;8.20;5.30;;;;;;;;;;4968482;28;20715;-64
2023/03/17 13:17:01;;;;;;;7.40;4.68;;;;;;;;;;4954540;28;20692;-64
2023/03/17 13:19:31;;;;;;;8.15;4.80;;;;;;;;;;4971387;28;20221;-64
2023/03/17 13:22:16;;;;;;;9.27;4.95;;;;;;;;;;4953998;28;20213;-64
2023/03/17 13:24:46;;;;;;;9.95;5.10;;;;;;;;;;4970869;28;20609;-64
2023/03/17 13:27:24;;;;;;;9.27;5.10;;;;;;;;;;4958700;28;20300;-63
2023/03/17 13:29:49;;;;;;;9.18;5.30;;;;;;;;;;4956318;28;20233;-63
2023/03/17 13:32:15;;;;;;;9.38;4.85;;;;;;;;;;4971137;28;20206;-64
2023/03/17 13:34:44;;;;;;;12.20;5.47;;;;;;;;;;4954510;28;20215;-64
2023/03/17 13:37:15;;;;;;;9.70;5.40;;;;;;;;;;4950086;29;20609;-63
2023/03/17 13:39:52;;;;;;;10.50;4.78;;;;;;;;;;4959965;28;20213;-63
2023/03/17 13:42:23;;;;;;;8.07;5.20;;;;;;;;;;4951692;28;20305;-63
2023/03/17 13:45:00;;;;;;;11.15;5.95;;;;;;;;;;4952211;28;20341;-63
2023/03/17 13:47:33;;;;;;;11.05;5.45;;;;;;;;;;4950469;29;20241;-63
2023/03/17 13:50:01;;;;;;;12.23;5.03;;;;;;;;;;4951630;28;20321;-63
2023/03/17 13:52:29;;;;;;;9.63;5.10;;;;;;;;;;4951677;28;20567;-64
2023/03/17 13:54:59;;;;;;;9.35;5.38;;;;;;;;;;4951540;29;20273;-63
2023/03/17 13:57:25;;;;;;;9.48;5.10;;;;;;;;;;4950868;28;20225;-63
2023/03/17 14:00:02;;;;;;;14.18;5.72;;;;;;;;;;4951394;28;20215;-64
2023/03/17 14:02:29;;;;;;;11.10;5.78;;;;;;;;;;4951608;29;20206;-64
2023/03/17 14:04:56;;;;;;;11.45;5.80;;;;;;;;;;4952223;28;20226;-64
2023/03/17 14:07:22;;;;;;;11.35;5.25;;;;;;;;;;4955417;29;20233;-64
2023/03/17 14:09:51;;;;;;;9.98;5.43;;;;;;;;;;4938062;29;20253;-64
2023/03/17 14:12:23;;;;;;;11.20;6.03;;;;;;;;;;4937783;29;20211;-64
2023/03/17 14:14:50;;;;;;;11.50;5.70;;;;;;;;;;4938528;29;20206;-64
2023/03/17 14:17:18;;;;;;;9.40;5.10;;;;;;;;;;4938257;29;20426;-64
2023/03/17 14:19:58;;;;;;;10.20;5.45;;;;;;;;;;4955261;29;20574;-63
2023/03/17 14:22:24;;;;;;;11.95;5.70;;;;;;;;;;4954983;29;20214;-64
2023/03/17 14:24:50;;;;;;;10.27;5.70;;;;;;;;;;4954950;29;20236;-64
2023/03/17 14:27:15;;;;;;;13.23;5.57;;;;;;;;;;4956180;28;20253;-64
2023/03/17 14:29:40;;;;;;;8.63;5.03;;;;;;;;;;4958818;28;20225;-64
2023/03/17 14:32:09;;;;;;;11.27;5.53;;;;;;;;;;4973753;28;20627;-63
2023/03/17 14:34:40;;;;;;;14.48;6.10;;;;;;;;;;4946239;28;20491;-64
2023/03/17 14:37:08;;;;;;;11.60;6.00;;;;;;;;;;4937629;29;20210;-64
2023/03/17 14:39:33;;;;;;;11.82;6.50;;;;;;;;;;4946760;29;20238;-64